• Join FlightAware (Why Join?)
  • Login
  • US Flag 
05:06AM EDT


 

Airport Tracker/Info


-or-


 

Live Flight TrackerFlight Track Log ✈ WBR2628 ✈ 17-Jun-2013 ✈ KSTL - KBRL

Flight Track Log - Related Links

Times and Time Zones

All times are in EDT time to prevent confusion due to time zone crossing. See the WBR2628 flight status page for this flight to view local times or setup timezone preferences in your user account.

Time Position Orientation Groundspeed Altitude Reporting Facility
EDT Latitude Longitude Course Direction KTS MPH feet Rate Location/Type
01:09PM 38.7500 -90.3167 345° North 106 122 1,600  Level Gateway (St. Louis) TRACON
01:10PM 38.7833 -90.3167 360° North 136 157 2,200 480 Climbing Gateway (St. Louis) TRACON
01:11PM 38.8025 -90.3239 344° North 128 147 2,400 600 Climbing Kansas City Center
01:12PM 38.8492 -90.3300 354° North 136 157 3,200 720 Climbing Kansas City Center
01:13PM 38.8889 -90.3336 356° North 142 163 3,900 660 Climbing Kansas City Center
01:14PM 38.9281 -90.3331 North 142 163 4,600 660 Climbing Kansas City Center
01:15PM 38.9704 -90.4457 345° North  Level FlightAware Approximate
01:15PM 38.9656 -90.3378 354° North 137 158 5,300  Level Kansas City Center
01:16PM 39.0031 -90.3489 347° North 138 159 5,900 240 Climbing Kansas City Center
01:17PM 39.0436 -90.3611 347° North 150 173 5,900  Level Kansas City Center
01:18PM 39.0936 -90.3875 338° Northwest 161 185 5,900  Level Kansas City Center
01:19PM 39.1339 -90.4058 341° North 155 178 6,000  Climbing Kansas City Center
01:20PM 39.1750 -90.4228 342° North 155 178 6,000  Level Kansas City Center
01:21PM 39.2161 -90.4406 341° North 157 181 6,000 -60 Level Kansas City Center
01:22PM 39.2589 -90.4542 346° North 157 181 5,900 -60 Descending Kansas City Center
01:23PM 39.3075 -90.4758 341° North 155 178 5,900  Level Kansas City Center
01:24PM 39.3478 -90.4936 341° North 155 178 5,900  Level Kansas City Center
01:25PM 39.3881 -90.5142 338° Northwest 156 180 5,900  Level Kansas City Center
01:26PM 39.4311 -90.5292 345° North 158 182 5,900  Level Kansas City Center
01:27PM 39.4714 -90.5461 342° North 157 181 6,000  Climbing Kansas City Center
01:28PM 39.5108 -90.5664 338° Northwest 154 177 5,900  Descending Kansas City Center
01:29PM 39.5567 -90.5881 340° North 150 173 6,000  Climbing Kansas City Center
01:30PM 39.5978 -90.5925 355° North 147 169 5,900 -60 Descending Kansas City Center
01:31PM 39.6394 -90.6000 352° North 150 173 5,900  Level Kansas City Center
01:32PM 39.6794 -90.6100 349° North 149 171 5,900  Level Kansas City Center
01:34PM 39.7197 -90.6161 353° North 145 167 6,000  Climbing Kansas City Center
01:35PM 39.7589 -90.6239 351° North 144 166 5,900 -60 Descending Kansas City Center
01:36PM 39.8075 -90.6331 352° North 147 169 5,900  Level Kansas City Center
01:37PM 39.8472 -90.6422 350° North 145 167 5,900  Level Kansas City Center
01:38PM 39.8856 -90.6561 344° North 144 166 5,900  Level Kansas City Center
01:39PM 39.9247 -90.6678 347° North 144 166 5,900  Level Kansas City Center
01:40PM 39.9647 -90.6819 345° North 146 168 5,900  Level Kansas City Center
01:41PM 40.0031 -90.6956 345° North 144 166 6,000  Climbing Kansas City Center
01:42PM 40.0458 -90.7106 345° North 143 165 5,900 -60 Descending Kansas City Center
01:43PM 40.0847 -90.7222 347° North 144 166 5,900  Level Kansas City Center
01:44PM 40.1236 -90.7347 346° North 144 166 6,000  Climbing Kansas City Center
01:45PM 40.1664 -90.7592 336° Northwest 145 167 5,900 -60 Descending Chicago Center
01:46PM 40.2031 -90.7808 336° Northwest 145 167 5,900  Level Chicago Center
01:47PM 40.2383 -90.8031 334° Northwest 145 167 5,900  Level Chicago Center
01:48PM 40.2828 -90.8308 335° Northwest 146 168 5,900  Level Chicago Center
01:49PM 40.3206 -90.8531 336° Northwest 147 169 6,000  Climbing Chicago Center
01:50PM 40.3583 -90.8753 336° Northwest 148 170 6,000  Level Kansas City Center
01:51PM 40.3950 -90.9006 332° Northwest 149 171 6,000  Level Chicago Center
01:52PM 40.4397 -90.9294 334° Northwest 150 173 6,000 -60 Level Chicago Center
01:53PM 40.4769 -90.9564 331° Northwest 152 175 5,900 -300 Descending Chicago Center
01:54PM 40.5136 -90.9844 330° Northwest 153 176 5,500 -540 Descending Chicago Center
01:55PM 40.5500 -91.0142 328° Northwest 154 177 4,800 -660 Descending Chicago Center
01:56PM 40.5872 -91.0414 331° Northwest 154 177 4,200 -600 Descending Chicago Center
01:57PM 40.6244 -91.0661 333° Northwest 153 176 3,600 -660 Descending Chicago Center
01:58PM 40.6608 -91.0942 330° Northwest 153 176 2,900 -720 Descending Chicago Center
02:00PM 40.7058 -91.0978 357° North  Level FlightAware Approximate
02:07PM 40.7667 -91.1167 339° North  Level FlightAware Approximate
02:08PM 40.7832 -91.1255 339° North  Level Estimated